»·PEaware :: N6262K KSBP-KTOA

N6262K :: KSBP-KTOA

FLIGHT INFORMATION

Flight Status: Arrived
Operator: Privately registered:
United States
More flights under this callsign
Pilot: Judson K. (15650)
Aircraft: CESSNA 172 SKYHAWK
(C172)
More flights by this aircraft type
Origin: KSBP San Luis Co Regl
United States
Destination: KTOA Zamperini
United States
More flights between these airports :: More routes between these airports
Route: +
File this flight plan on PilotEdge
Remarks:
Altitude:
(Current/Filed)
0ft
Speed:
(Current/Filed)
0kts
Departed: 25-Nov-17 10:03 AM
Arrived: 25-Nov-17 11:45 AM
Distance/Time
Traveled:
143nm/1:42
Distance/Time
To Go:
Arrived

Flight Plot

Page will automatically refresh every two minutes.

Flight plan parsing failed; only flown route is shown


Map Options




Map Legend


Flown Route
Filed Route
Departure Airport
Arrival Airport
Navaid (VOR, NDB)
Fix

Horizontal Profiles

Position Reports

Time Latitude Longitude Heading Altitude Ground
Speed
25-Nov-17 09:54 35.238247 -120.638626 269 195ft 0kts
25-Nov-17 09:55 35.238247 -120.638626 269 195ft 0kts
25-Nov-17 09:56 35.238247 -120.638626 269 195ft 0kts
25-Nov-17 09:57 35.238247 -120.638626 269 195ft 0kts
25-Nov-17 09:58 35.238056 -120.638907 176 194ft 0kts
25-Nov-17 09:59 35.238056 -120.638907 176 194ft 0kts
25-Nov-17 10:00 35.238056 -120.638907 176 194ft 0kts
25-Nov-17 10:01 35.238056 -120.638907 176 194ft 0kts
25-Nov-17 10:02 35.238056 -120.638907 176 194ft 0kts
25-Nov-17 10:03 35.238056 -120.638907 176 194ft 0kts
25-Nov-17 10:04 35.236696 -120.637966 127 198ft 22kts
25-Nov-17 10:05 35.233907 -120.633033 122 211ft 15kts
25-Nov-17 10:06 35.233074 -120.632155 281 212ft 0kts
25-Nov-17 10:07 35.233074 -120.632154 281 212ft 0kts
25-Nov-17 10:08 35.234245 -120.635606 302 207ft 66kts
25-Nov-17 10:09 35.237742 -120.658702 207 1015ft 95kts
25-Nov-17 10:10 35.220918 -120.635825 132 1663ft 91kts
25-Nov-17 10:11 35.202016 -120.614675 141 2530ft 94kts
25-Nov-17 10:12 35.180112 -120.598282 153 3394ft 93kts
25-Nov-17 10:13 35.155022 -120.587638 163 4136ft 97kts
25-Nov-17 10:14 35.129467 -120.580365 169 4940ft 92kts
25-Nov-17 10:15 35.103447 -120.570929 157 5496ft 107kts
25-Nov-17 10:16 35.080308 -120.547804 134 5501ft 110kts
25-Nov-17 10:17 35.058746 -120.521339 134 5500ft 110kts
25-Nov-17 10:18 35.037168 -120.494890 134 5500ft 110kts
25-Nov-17 10:19 35.015522 -120.468386 134 5500ft 110kts
25-Nov-17 10:20 34.993808 -120.441971 133 5500ft 111kts
25-Nov-17 10:21 34.972048 -120.415355 132 5500ft 110kts
25-Nov-17 10:22 34.950709 -120.389190 133 5499ft 107kts
25-Nov-17 10:23 34.929935 -120.363072 131 5500ft 107kts
25-Nov-17 10:24 34.910213 -120.337107 130 5501ft 107kts
25-Nov-17 10:25 34.890619 -120.310096 129 5500ft 107kts
25-Nov-17 10:26 34.871067 -120.282709 129 5500ft 107kts
25-Nov-17 10:27 34.851560 -120.255148 129 5500ft 107kts
25-Nov-17 10:28 34.832137 -120.227592 129 5500ft 107kts
25-Nov-17 10:29 34.812759 -120.200012 129 5500ft 107kts
25-Nov-17 10:30 34.793436 -120.172613 127 5545ft 103kts
25-Nov-17 10:31 34.774355 -120.145304 127 5581ft 110kts
25-Nov-17 10:32 34.753971 -120.116070 130 5582ft 116kts
25-Nov-17 10:33 34.733062 -120.086350 133 5581ft 115kts
25-Nov-17 10:34 34.712098 -120.056807 133 5581ft 115kts
25-Nov-17 10:35 34.691193 -120.027266 133 5581ft 115kts
25-Nov-17 10:36 34.670284 -119.997689 132 5581ft 115kts
25-Nov-17 10:37 34.649433 -119.968193 132 5581ft 115kts
25-Nov-17 10:38 34.628536 -119.938643 132 5581ft 115kts
25-Nov-17 10:39 34.607644 -119.909118 132 5581ft 115kts
25-Nov-17 10:40 34.586404 -119.879147 133 5531ft 117kts
25-Nov-17 10:41 34.567164 -119.852141 131 5525ft 99kts
25-Nov-17 10:42 34.548638 -119.825961 130 5529ft 105kts
25-Nov-17 10:43 34.529559 -119.799020 130 5527ft 106kts
25-Nov-17 10:44 34.513866 -119.769509 105 5528ft 106kts
25-Nov-17 10:45 34.506666 -119.734558 104 5527ft 107kts
25-Nov-17 10:46 34.499983 -119.699349 103 5527ft 107kts
25-Nov-17 10:47 34.493410 -119.662871 103 5481ft 111kts
25-Nov-17 10:48 34.487018 -119.626309 103 5481ft 110kts
25-Nov-17 10:49 34.480671 -119.589782 103 5481ft 110kts
25-Nov-17 10:50 34.474351 -119.553179 103 5481ft 110kts
25-Nov-17 10:51 34.468058 -119.516643 103 5481ft 110kts
25-Nov-17 10:52 34.461776 -119.480159 103 5481ft 110kts
25-Nov-17 10:53 34.455407 -119.443644 104 5481ft 110kts
25-Nov-17 10:54 34.449033 -119.407240 102 5481ft 110kts
25-Nov-17 10:55 34.442574 -119.370400 104 5481ft 113kts
25-Nov-17 10:56 34.436391 -119.334533 103 5481ft 110kts
25-Nov-17 10:57 34.430090 -119.298606 103 5481ft 109kts
25-Nov-17 10:58 34.423795 -119.262421 103 5481ft 109kts
25-Nov-17 10:59 34.417499 -119.226335 103 5481ft 109kts
25-Nov-17 11:00 34.411223 -119.190366 103 5504ft 108kts
25-Nov-17 11:01 34.405202 -119.156045 100 5671ft 105kts
25-Nov-17 11:02 34.398799 -119.119420 100 5661ft 118kts
25-Nov-17 11:03 34.391529 -119.077666 102 5486ft 129kts
25-Nov-17 11:04 34.384182 -119.035824 103 5481ft 124kts
25-Nov-17 11:05 34.376945 -118.995073 103 5481ft 123kts
25-Nov-17 11:06 34.369756 -118.954505 103 5481ft 122kts
25-Nov-17 11:07 34.362620 -118.914287 104 5481ft 122kts
25-Nov-17 11:08 34.355438 -118.874080 103 5481ft 122kts
25-Nov-17 11:09 34.348878 -118.833443 100 5473ft 124kts
25-Nov-17 11:10 34.343566 -118.792182 98 5472ft 124kts
25-Nov-17 11:11 34.338869 -118.750585 96 5473ft 124kts
25-Nov-17 11:12 34.334794 -118.709146 94 5473ft 123kts
25-Nov-17 11:13 34.331307 -118.668099 93 5472ft 122kts
25-Nov-17 11:14 34.325763 -118.628315 137 5467ft 121kts
25-Nov-17 11:15 34.294680 -118.611680 156 5473ft 123kts
25-Nov-17 11:16 34.262986 -118.595863 157 5503ft 121kts
25-Nov-17 11:17 34.232080 -118.580366 157 5536ft 120kts
25-Nov-17 11:18 34.201611 -118.565154 157 5535ft 117kts
25-Nov-17 11:19 34.170850 -118.549767 157 5483ft 120kts
25-Nov-17 11:20 34.140254 -118.534490 158 5482ft 118kts
25-Nov-17 11:21 34.110270 -118.519644 158 5481ft 115kts
25-Nov-17 11:22 34.080985 -118.505097 158 5481ft 114kts
25-Nov-17 11:23 34.051584 -118.490478 158 5481ft 115kts
25-Nov-17 11:24 34.022027 -118.475799 158 5481ft 115kts
25-Nov-17 11:25 33.992388 -118.461143 157 5480ft 116kts
25-Nov-17 11:26 33.962371 -118.446246 157 5482ft 117kts
25-Nov-17 11:27 33.932122 -118.431229 157 5481ft 117kts
25-Nov-17 11:28 33.908006 -118.405520 136 5482ft 117kts
25-Nov-17 11:29 33.884251 -118.379386 137 5482ft 117kts
25-Nov-17 11:30 33.860143 -118.353220 137 5482ft 117kts
25-Nov-17 11:31 33.837028 -118.328410 138 5500ft 117kts
25-Nov-17 11:32 33.812683 -118.302208 138 5500ft 117kts
25-Nov-17 11:33 33.788159 -118.275877 136 5486ft 120kts
25-Nov-17 11:34 33.763154 -118.248958 134 5481ft 120kts
25-Nov-17 11:35 33.743979 -118.215042 121 5009ft 124kts
25-Nov-17 11:36 33.724995 -118.180437 122 4061ft 129kts
25-Nov-17 11:37 33.705901 -118.142950 121 2873ft 133kts
25-Nov-17 11:38 33.689835 -118.108828 121 2480ft 104kts
25-Nov-17 11:39 33.673833 -118.080102 164 2480ft 103kts
25-Nov-17 11:40 33.664902 -118.104859 282 2468ft 109kts
25-Nov-17 11:41 33.673383 -118.142800 294 2028ft 121kts
25-Nov-17 11:42 33.692608 -118.172146 306 1981ft 109kts
25-Nov-17 11:43 33.711974 -118.201198 306 1983ft 114kts
25-Nov-17 11:44 33.731697 -118.230814 306 1981ft 111kts
25-Nov-17 11:45 33.750883 -118.259615 308 1842ft 112kts
25-Nov-17 11:46 33.766093 -118.282511 311 1324ft 67kts
25-Nov-17 11:47 33.777183 -118.299275 311 1013ft 62kts
25-Nov-17 11:48 33.788354 -118.315941 312 610ft 67kts
25-Nov-17 11:49 33.800052 -118.333722 311 137ft 68kts
25-Nov-17 11:50 33.805544 -118.342707 288 93ft 7kts
25-Nov-17 11:51 33.805897 -118.343888 292 91ft 0kts
25-Nov-17 11:52 33.804927 -118.344927 128 95ft 13kts
25-Nov-17 11:53 33.802978 -118.342215 208 101ft 5kts
25-Nov-17 11:54 33.801808 -118.341725 32 104ft 0kts
25-Nov-17 11:55 33.801823 -118.341712 38 104ft 0kts
25-Nov-17 11:56 33.801823 -118.341712 38 104ft 0kts

Navigation Log

Ident Type
Flight plan parsing failed, navigation log unavailable